WetterOnline ( http://www.wetteronline.de )

Wetter aktuell Gottfrieding

Aktuelles Wetter: Gottfrieding (350m)

6-stündlich | Neueste Meldungen
Ortszeit Temperatur Wetter
Di, 18.12. 13:00 2.5° C bedeckt
Di, 18.12. 7:00 -0.3° C Nebel
Di, 18.12. 1:00 1.4° C Sprühregen
Mo, 17.12. 19:00 0.5° C Sprühregen
Mo, 17.12. 13:00 1.4° C bedeckt
Mo, 17.12. 7:00 -0.9° C bedeckt
Mo, 17.12. 1:00 -1.3° C bedeckt
So, 16.12. 19:00 -1.8° C gefr. Sprühregen
Ortszeit Temperatur Wetter
Di, 18.12. 14:00 3.2° C bedeckt
Di, 18.12. 13:50 3.2° C bedeckt
Di, 18.12. 13:40 3.1° C bedeckt
Di, 18.12. 13:30 3.0° C bedeckt
Di, 18.12. 13:20 3.0° C bedeckt
Di, 18.12. 13:10 2.9° C bedeckt
Di, 18.12. 13:00 2.5° C bedeckt
Di, 18.12. 12:30 2.0° C bedeckt
Di, 18.12. 12:00 2.0° C bedeckt
Di, 18.12. 11:30 1.9° C bedeckt
Di, 18.12. 11:00 1.7° C bewölkt
Ortszeit Relative Feuchte Sichtweite
Di, 18.12. 13:00 94% 3.9 km
Di, 18.12. 7:00 99% <100 m
Di, 18.12. 1:00 98% 1.5 km
Mo, 17.12. 19:00 95% 2.5 km
Mo, 17.12. 13:00 90% 3.8 km
Mo, 17.12. 7:00 93% 3.0 km
Mo, 17.12. 1:00 90% 4.3 km
So, 16.12. 19:00 94% 3.5 km
Ortszeit Relative Feuchte Sichtweite
Di, 18.12. 14:00 91% 5.0 km
Di, 18.12. 13:50 91% -
Di, 18.12. 13:40 92% -
Di, 18.12. 13:30 92% 4.4 km
Di, 18.12. 13:20 92% -
Di, 18.12. 13:10 94% -
Di, 18.12. 13:00 94% 3.9 km
Di, 18.12. 12:30 98% 2.3 km
Di, 18.12. 12:00 98% 2.1 km
Di, 18.12. 11:30 98% 2.0 km
Di, 18.12. 11:00 99% 1.7 km
Ortszeit Niederschlagsmenge Niederschlagsart
Di, 18.12. 13:00 0.0 l/m2 in 6 Std. -
Di, 18.12. 7:00 2 l/m2 in 12 Std. Regen
Di, 18.12. 1:00 2 l/m2 in 6 Std. Regen
Mo, 17.12. 19:00 0.1 l/m2 in 12 Std. Schnee, Regen
Mo, 17.12. 13:00 0.1 l/m2 in 6 Std. Schnee, Sprühregen
Mo, 17.12. 7:00 0.1 l/m2 in 12 Std. Sprühregen
Mo, 17.12. 1:00 0.1 l/m2 in 6 Std. Schnee, Sprühregen
So, 16.12. 19:00 0.2 l/m2 in 12 Std. Schnee, Sprühregen
Ortszeit Niederschlagsmenge Niederschlagsart
Di, 18.12. 14:00 0.0 l/m2 in 1 Std. -
Di, 18.12. 13:50 keine Meldung -
Di, 18.12. 13:40 keine Meldung -
Di, 18.12. 13:30 0.0 l/m2 in 1 Std. -
Di, 18.12. 13:20 keine Meldung -
Di, 18.12. 13:10 keine Meldung -
Di, 18.12. 13:00 0.0 l/m2 in 1 Std. -
Di, 18.12. 12:30 0.0 l/m2 in 1 Std. -
Di, 18.12. 12:00 0.0 l/m2 in 1 Std. -
Di, 18.12. 11:30 0.0 l/m2 in 1 Std. -
Di, 18.12. 11:00 0.0 l/m2 in 1 Std. -
Ortszeit Stärke Spitze Richtung
km/h Bft. km/h Grad Sektor
Di, 18.12. 13:00 11 2 18 70° O
Di, 18.12. 7:00 6 1 11 170° S
Di, 18.12. 1:00 4 1 11 250° W
Mo, 17.12. 19:00 0 0 11 - -
Mo, 17.12. 13:00 4 1 7 340° N
Mo, 17.12. 7:00 6 1 13 240° SW
Mo, 17.12. 1:00 7 2 14 70° O
So, 16.12. 19:00 9 2 13 60° NO
Ortszeit Stärke Spitze Richtung
km/h Bft. km/h Grad Sektor
Di, 18.12. 14:00 11 2 18 80° O
Di, 18.12. 13:50 11 2 - 80° O
Di, 18.12. 13:40 11 2 - 80° O
Di, 18.12. 13:30 11 2 14 80° O
Di, 18.12. 13:20 11 2 - 80° O
Di, 18.12. 13:10 11 2 - 80° O
Di, 18.12. 13:00 11 2 18 70° O
Di, 18.12. 12:30 11 2 14 70° O
Di, 18.12. 12:00 7 2 18 90° O
Di, 18.12. 11:30 11 2 18 80° O
Di, 18.12. 11:00 7 2 7 120° SO
Ortszeit Untergrenze Bedeckung Gattung
total tief tief mittel hoch
Di, 18.12. 13:00 120 m 8/8 8/8 - - -
Di, 18.12. 7:00 <30 m 7/8 7/8 - - -
Di, 18.12. 1:00 360 m 8/8 8/8 - - -
Mo, 17.12. 19:00 390 m 8/8 8/8 - - -
Mo, 17.12. 13:00 210 m 8/8 8/8 - - -
Mo, 17.12. 7:00 240 m 8/8 8/8 - - -
Mo, 17.12. 1:00 270 m 8/8 8/8 - - -
So, 16.12. 19:00 330 m 7/8 7/8 - - -
Ortszeit Bedeckungsgrad in Achtel und Wolkenuntergrenze
Di, 18.12. 14:00 8(180m)
Di, 18.12. 13:50 8(180m)
Di, 18.12. 13:40 8(180m)
Di, 18.12. 13:30 8(150m)
Di, 18.12. 13:20 8(150m)
Di, 18.12. 13:10 8(150m)
Di, 18.12. 13:00 8(120m)
Di, 18.12. 12:30 8(90m)
Di, 18.12. 12:00 8(60m)
Di, 18.12. 11:30 8(60m)
Di, 18.12. 11:00 6(120m) 7(240m) 7(1050m)
Ortszeit Luftdruck NN (hPa) Tendenz (hPa in 3 Std.)
Di, 18.12. 13:00 1029 - 1,3
Di, 18.12. 7:00 1031 0,0
Di, 18.12. 1:00 1031 + 0,7
Mo, 17.12. 19:00 1029 + 2,2
Mo, 17.12. 13:00 1025 + 0,7
Mo, 17.12. 7:00 1021 + 1,7
Mo, 17.12. 1:00 1019 + 0,3
So, 16.12. 19:00 1018 + 1,0
Ortszeit Luftdruck NN (hPa) Tendenz (hPa in 3 Std.)
Di, 18.12. 14:00 1028 - 2,2
Di, 18.12. 13:50 1028 keine Meldung
Di, 18.12. 13:40 1028 keine Meldung
Di, 18.12. 13:30 1028 - 2,2
Di, 18.12. 13:20 1028 keine Meldung
Di, 18.12. 13:10 1028 keine Meldung
Di, 18.12. 13:00 1029 - 1,3
Di, 18.12. 12:30 1029 - 1,3
Di, 18.12. 12:00 1029 - 1,0
Di, 18.12. 11:30 1030 - 0,6
Di, 18.12. 11:00 1030 - 0,3
Ortszeit Schneehöhe (cm)
Di, 18.12. 13:00 0
Di, 18.12. 7:00 1
Di, 18.12. 1:00 -
Mo, 17.12. 19:00 -
Mo, 17.12. 13:00 -
Mo, 17.12. 7:00 1
Mo, 17.12. 1:00 1
So, 16.12. 19:00 2
Ortszeit Schneehöhe (cm)
Di, 18.12. 14:00 0
Di, 18.12. 13:50 0
Di, 18.12. 13:40 0
Di, 18.12. 13:30 0
Di, 18.12. 13:20 0
Di, 18.12. 13:10 0
Di, 18.12. 13:00 0
Di, 18.12. 12:30 0
Di, 18.12. 12:00 0
Di, 18.12. 11:30 0
Di, 18.12. 11:00 0
Link zu dieser Seite / Seite empfehlen

Das Wetter in ...